createdAt,value
2022-10-31T00:00:45.074Z,4.60
2022-10-31T00:03:12.062Z,4.50
2022-10-31T00:05:43.192Z,4.55
2022-10-31T00:08:09.514Z,4.00
2022-10-31T00:10:42.178Z,4.70
2022-10-31T00:13:09.474Z,6.70
2022-10-31T00:15:38.260Z,4.60
2022-10-31T00:18:05.781Z,3.97
2022-10-31T00:20:32.132Z,3.60
2022-10-31T00:22:59.869Z,4.28
2022-10-31T00:25:27.597Z,5.20
2022-10-31T00:27:54.138Z,4.57
2022-10-31T00:30:20.652Z,4.78
2022-10-31T00:32:47.494Z,6.43
2022-10-31T00:35:13.839Z,5.65
2022-10-31T00:37:40.132Z,6.35
2022-10-31T00:40:07.482Z,4.72
2022-10-31T00:42:33.806Z,5.75
2022-10-31T00:45:00.107Z,5.55
2022-10-31T00:47:26.842Z,4.90
2022-10-31T00:49:53.140Z,5.40
2022-10-31T00:52:19.467Z,3.95
2022-10-31T00:54:46.272Z,4.45
2022-10-31T00:57:13.055Z,4.22
2022-10-31T00:59:39.620Z,9.90
2022-10-31T01:02:06.137Z,4.95
2022-10-31T01:04:33.277Z,4.28
2022-10-31T01:06:59.599Z,3.95
2022-10-31T01:09:25.963Z,5.50
2022-10-31T01:11:52.941Z,5.28
2022-10-31T01:14:19.260Z,6.70
2022-10-31T01:16:45.572Z,4.45
2022-10-31T01:19:12.293Z,3.45
2022-10-31T01:21:38.619Z,5.28
2022-10-31T01:24:05.921Z,5.18
2022-10-31T01:26:34.388Z,4.38
2022-10-31T01:29:04.490Z,6.55
2022-10-31T01:31:35.149Z,5.53
2022-10-31T01:34:01.558Z,5.93
2022-10-31T01:36:30.558Z,7.47
2022-10-31T01:39:00.223Z,3.42
2022-10-31T01:41:30.151Z,5.13
2022-10-31T01:44:03.692Z,3.72
2022-10-31T01:46:34.963Z,5.32
2022-10-31T01:49:06.766Z,2.70
2022-10-31T01:51:37.266Z,3.25
2022-10-31T01:54:13.014Z,4.50
2022-10-31T01:56:43.009Z,5.47
2022-10-31T01:59:13.803Z,7.10
2022-10-31T02:01:40.798Z,4.32
2022-10-31T02:04:08.506Z,7.05
2022-10-31T02:06:48.659Z,4.30
2022-10-31T02:09:15.825Z,5.38
2022-10-31T02:11:44.925Z,3.58
2022-10-31T02:14:11.906Z,4.50
2022-10-31T02:16:38.219Z,4.68
2022-10-31T02:19:09.773Z,2.97
2022-10-31T02:21:49.414Z,7.03
2022-10-31T02:24:46.661Z,6.03
2022-10-31T02:27:41.192Z,5.80
2022-10-31T02:30:07.541Z,4.55
2022-10-31T02:32:36.884Z,4.93
2022-10-31T02:35:06.565Z,4.20
2022-10-31T02:37:38.985Z,3.80
2022-10-31T02:40:34.082Z,5.80
2022-10-31T02:46:14.414Z,4.57
2022-10-31T02:48:45.634Z,7.05
2022-10-31T02:51:13.013Z,4.93
2022-10-31T02:53:39.633Z,3.50
2022-10-31T02:56:20.837Z,3.90
2022-10-31T02:58:51.727Z,4.45
2022-10-31T03:01:39.456Z,5.65
2022-10-31T03:04:21.586Z,5.78
2022-10-31T03:06:50.989Z,3.45
2022-10-31T03:09:46.729Z,5.88
2022-10-31T03:15:07.295Z,3.92
2022-10-31T03:18:04.777Z,6.13
2022-10-31T03:20:41.327Z,4.28
2022-10-31T03:23:14.831Z,3.72
2022-10-31T03:25:42.976Z,3.85
2022-10-31T03:28:13.064Z,5.20
2022-10-31T03:30:44.586Z,8.18
2022-10-31T03:33:15.845Z,6.47
2022-10-31T03:35:46.668Z,4.97
2022-10-31T03:38:15.491Z,5.18
2022-10-31T03:40:47.616Z,4.65
2022-10-31T03:43:20.467Z,3.35
2022-10-31T03:45:48.494Z,3.45
2022-10-31T03:48:18.807Z,3.53
2022-10-31T03:51:02.215Z,3.22
2022-10-31T03:53:50.283Z,5.95
2022-10-31T03:56:32.366Z,4.03
2022-10-31T03:59:11.635Z,3.83
2022-10-31T04:01:41.167Z,4.22
2022-10-31T04:04:09.109Z,7.40
2022-10-31T04:06:38.516Z,5.15
2022-10-31T04:09:08.397Z,3.92
2022-10-31T04:11:41.606Z,4.85
2022-10-31T04:14:09.302Z,3.58
2022-10-31T04:16:35.690Z,4.20
2022-10-31T04:19:02.610Z,4.13
2022-10-31T04:21:31.179Z,12.30
2022-10-31T04:23:58.128Z,9.35
2022-10-31T04:26:24.917Z,10.82
2022-10-31T04:28:51.225Z,9.35
2022-10-31T04:31:18.765Z,8.07
2022-10-31T04:33:45.098Z,8.80
2022-10-31T04:36:11.730Z,4.97
2022-10-31T04:38:38.705Z,6.18
2022-10-31T04:41:05.161Z,5.70
2022-10-31T04:43:31.504Z,4.60
2022-10-31T04:45:58.357Z,5.55
2022-10-31T04:48:25.260Z,4.97
2022-10-31T04:50:51.591Z,3.78
2022-10-31T04:53:18.335Z,6.65
2022-10-31T04:55:44.663Z,4.68
2022-10-31T04:58:11.361Z,4.15
2022-10-31T05:00:37.693Z,5.05
2022-10-31T05:03:04.323Z,3.85
2022-10-31T05:05:32.651Z,4.70
2022-10-31T05:07:59.013Z,5.85
2022-10-31T05:10:28.277Z,3.33
2022-10-31T05:13:00.614Z,3.55
2022-10-31T05:15:28.361Z,4.90
2022-10-31T05:17:55.381Z,5.15
2022-10-31T05:20:25.446Z,7.68
2022-10-31T05:22:53.788Z,3.70
2022-10-31T05:25:21.815Z,5.40
2022-10-31T05:27:50.343Z,3.85
2022-10-31T05:30:23.279Z,4.80
2022-10-31T05:32:51.464Z,4.45
2022-10-31T05:35:20.580Z,4.35
2022-10-31T05:37:47.514Z,4.85
2022-10-31T05:40:15.712Z,4.30
2022-10-31T05:42:43.271Z,4.57
2022-10-31T05:45:18.271Z,5.28
2022-10-31T05:48:03.733Z,4.28
2022-10-31T05:50:32.777Z,8.50
2022-10-31T05:53:04.627Z,7.85
2022-10-31T05:55:31.990Z,3.97
2022-10-31T05:57:59.424Z,6.47
2022-10-31T06:00:26.937Z,5.82
2022-10-31T06:03:05.275Z,3.80
2022-10-31T06:05:32.050Z,5.45
2022-10-31T06:07:59.514Z,4.00
2022-10-31T06:10:27.426Z,4.88
2022-10-31T06:12:54.190Z,5.05
2022-10-31T06:15:24.076Z,5.05
2022-10-31T06:18:07.173Z,3.47
2022-10-31T06:20:34.721Z,3.10
2022-10-31T06:23:01.849Z,5.25
2022-10-31T06:25:29.339Z,5.72
2022-10-31T06:27:56.972Z,4.68
2022-10-31T06:30:23.415Z,2.97
2022-10-31T06:32:50.647Z,4.35
2022-10-31T06:35:17.562Z,9.30
2022-10-31T06:37:46.779Z,4.80
2022-10-31T06:40:16.003Z,4.80
2022-10-31T06:42:42.531Z,8.77
2022-10-31T06:45:09.166Z,4.35
2022-10-31T06:47:50.856Z,5.05
2022-10-31T06:50:23.301Z,5.35
2022-10-31T06:52:58.938Z,5.95
2022-10-31T06:55:27.469Z,2.83
2022-10-31T06:57:58.885Z,3.55
2022-10-31T07:00:30.838Z,4.80
2022-10-31T07:02:58.784Z,4.82
2022-10-31T07:05:26.377Z,7.47
2022-10-31T07:07:57.194Z,8.10
2022-10-31T07:10:25.409Z,7.20
2022-10-31T07:12:59.834Z,14.93
2022-10-31T07:15:28.853Z,9.80
2022-10-31T07:18:00.982Z,11.38
2022-10-31T07:20:27.361Z,14.70
2022-10-31T07:22:54.169Z,13.32
2022-10-31T07:25:20.940Z,24.05
2022-10-31T07:27:47.467Z,17.15
2022-10-31T07:30:15.562Z,15.85
2022-10-31T07:32:49.366Z,15.00
2022-10-31T07:35:19.073Z,19.73
2022-10-31T07:37:45.496Z,18.65
2022-10-31T07:40:13.036Z,22.80
2022-10-31T07:42:41.213Z,21.70
2022-10-31T07:45:10.678Z,20.40
2022-10-31T07:47:44.308Z,21.02
2022-10-31T07:50:12.805Z,23.73
2022-10-31T07:52:39.901Z,19.98
2022-10-31T07:55:06.816Z,15.57
2022-10-31T07:57:34.695Z,19.88
2022-10-31T08:00:01.966Z,20.90
2022-10-31T08:02:28.314Z,18.48
2022-10-31T08:04:58.570Z,17.90
2022-10-31T08:07:28.051Z,16.52
2022-10-31T08:09:54.918Z,17.58
2022-10-31T08:12:22.417Z,21.02
2022-10-31T08:14:49.172Z,19.88
2022-10-31T08:17:15.529Z,14.13
2022-10-31T08:19:41.852Z,14.23
2022-10-31T08:22:08.559Z,13.48
2022-10-31T08:24:34.985Z,10.82
2022-10-31T08:27:01.883Z,11.80
2022-10-31T08:29:28.188Z,9.35
2022-10-31T08:31:54.518Z,10.10
2022-10-31T08:34:21.313Z,8.27
2022-10-31T08:36:47.628Z,11.18
2022-10-31T08:39:13.959Z,8.98
2022-10-31T08:41:40.846Z,8.98
2022-10-31T08:44:07.181Z,8.50
2022-10-31T08:46:33.667Z,8.57
2022-10-31T08:49:00.343Z,10.43
2022-10-31T08:51:27.125Z,8.30
2022-10-31T08:53:53.455Z,9.82
2022-10-31T08:56:20.289Z,11.65
2022-10-31T08:58:46.643Z,8.05
2022-10-31T09:01:13.101Z,10.48
2022-10-31T09:03:39.552Z,8.20
2022-10-31T09:06:09.619Z,7.13
2022-10-31T09:08:36.956Z,8.38
2022-10-31T09:11:05.072Z,10.05
2022-10-31T09:13:31.409Z,7.80
2022-10-31T09:15:59.475Z,9.35
2022-10-31T09:18:29.328Z,9.73
2022-10-31T09:20:58.905Z,8.18
2022-10-31T09:23:25.387Z,10.23
2022-10-31T09:25:54.299Z,8.65
2022-10-31T09:28:23.170Z,9.23
2022-10-31T09:30:51.905Z,6.38
2022-10-31T09:33:19.473Z,8.40
2022-10-31T09:35:46.005Z,7.47
2022-10-31T09:38:17.610Z,10.77
2022-10-31T09:40:45.836Z,9.73
2022-10-31T09:43:31.146Z,7.78
2022-10-31T09:46:08.098Z,6.47
2022-10-31T09:49:01.669Z,6.60
2022-10-31T09:51:40.699Z,7.53
2022-10-31T09:54:16.961Z,6.07
2022-10-31T09:56:45.412Z,8.02
2022-10-31T09:59:21.809Z,7.55
2022-10-31T10:01:54.791Z,6.97
2022-10-31T10:04:50.328Z,9.52
2022-10-31T10:07:35.376Z,10.95
2022-10-31T10:10:13.050Z,10.02
2022-10-31T10:12:50.685Z,7.63
2022-10-31T10:15:41.775Z,8.43
2022-10-31T10:18:27.368Z,8.02
2022-10-31T10:21:23.414Z,10.85
2022-10-31T10:23:58.690Z,9.02
2022-10-31T10:26:35.597Z,11.38
2022-10-31T10:29:08.713Z,9.73
2022-10-31T10:31:41.190Z,10.50
2022-10-31T10:34:19.794Z,11.27
2022-10-31T10:36:53.424Z,12.73
2022-10-31T10:39:34.421Z,12.60
2022-10-31T10:42:20.199Z,16.45
2022-10-31T10:45:09.621Z,15.32
2022-10-31T10:47:43.148Z,13.98
2022-10-31T10:50:21.980Z,19.40
2022-10-31T10:53:09.305Z,10.70
2022-10-31T10:55:59.514Z,12.05
2022-10-31T10:58:26.662Z,14.57
2022-10-31T11:00:55.199Z,13.50
2022-10-31T11:03:21.605Z,11.55
2022-10-31T11:05:58.010Z,10.75
2022-10-31T11:08:35.465Z,9.95
2022-10-31T11:11:11.862Z,13.85
2022-10-31T11:13:42.145Z,11.85
2022-10-31T11:16:12.414Z,11.88
2022-10-31T11:18:42.942Z,14.70
2022-10-31T11:21:31.288Z,14.80
2022-10-31T11:24:27.097Z,15.13
2022-10-31T11:27:10.960Z,12.25
2022-10-31T11:29:38.312Z,13.95
2022-10-31T11:32:04.972Z,11.15
2022-10-31T11:34:35.810Z,13.07
2022-10-31T11:37:14.317Z,15.15
2022-10-31T11:39:43.274Z,18.40
2022-10-31T11:42:10.265Z,21.10
2022-10-31T11:44:36.956Z,16.77
2022-10-31T11:47:06.609Z,15.75
2022-10-31T11:49:37.654Z,19.35
2022-10-31T11:52:17.344Z,16.80
2022-10-31T11:55:11.409Z,23.02
2022-10-31T11:57:50.045Z,16.90
2022-10-31T12:03:25.574Z,25.15
2022-10-31T12:06:12.162Z,27.83
2022-10-31T12:08:41.127Z,28.00
2022-10-31T12:11:49.126Z,20.73
2022-10-31T12:14:27.536Z,20.00
2022-10-31T12:17:06.638Z,19.30
2022-10-31T12:19:44.163Z,23.88
2022-10-31T12:22:52.486Z,27.88
2022-10-31T12:25:31.044Z,26.35
2022-10-31T12:28:41.566Z,25.42
2022-10-31T12:31:14.617Z,31.25
2022-10-31T12:33:56.737Z,30.75
2022-10-31T12:36:37.096Z,32.13
2022-10-31T12:39:16.138Z,28.77
2022-10-31T12:42:03.047Z,26.70
2022-10-31T12:44:55.518Z,30.80
2022-10-31T12:48:11.655Z,28.98
2022-10-31T12:50:48.510Z,25.27
2022-10-31T12:53:39.303Z,24.52
2022-10-31T12:56:35.414Z,23.80
2022-10-31T12:59:13.886Z,22.35
2022-10-31T13:02:04.871Z,24.73
2022-10-31T13:04:50.941Z,21.15
2022-10-31T13:07:44.764Z,21.60
2022-10-31T13:10:13.786Z,26.98
2022-10-31T13:12:42.689Z,24.10
2022-10-31T13:15:25.882Z,21.08
2022-10-31T13:18:13.333Z,27.23
2022-10-31T13:20:54.557Z,26.75
2022-10-31T13:23:50.294Z,25.40
2022-10-31T13:26:53.376Z,24.00
2022-10-31T13:29:44.148Z,30.73
2022-10-31T13:32:11.442Z,29.08
2022-10-31T13:34:43.322Z,32.92
2022-10-31T13:37:33.611Z,29.30
2022-10-31T13:40:58.634Z,28.15
2022-10-31T13:43:43.492Z,31.15
2022-10-31T13:49:27.007Z,32.70
2022-10-31T13:51:54.013Z,33.53
2022-10-31T13:54:35.737Z,26.58
2022-10-31T13:57:02.142Z,34.05
2022-10-31T13:59:33.099Z,28.85
2022-10-31T14:02:13.758Z,25.45
2022-10-31T14:04:47.796Z,33.45
2022-10-31T14:07:18.278Z,30.75
2022-10-31T14:10:00.523Z,34.70
2022-10-31T14:12:44.234Z,40.65
2022-10-31T14:15:10.496Z,34.95
2022-10-31T14:17:47.942Z,36.92
2022-10-31T14:20:14.957Z,38.20
2022-10-31T14:22:43.077Z,41.10
2022-10-31T14:25:30.040Z,31.95
2022-10-31T14:27:57.146Z,29.75
2022-10-31T14:30:27.075Z,31.25
2022-10-31T14:32:59.200Z,27.70
2022-10-31T14:36:02.309Z,34.00
2022-10-31T14:38:51.869Z,34.90
2022-10-31T14:41:37.439Z,31.95
2022-10-31T14:44:22.494Z,31.60
2022-10-31T14:46:56.638Z,31.42
2022-10-31T14:49:44.795Z,32.80
2022-10-31T14:52:15.655Z,31.92
2022-10-31T14:54:46.886Z,29.88
2022-10-31T14:57:20.331Z,25.60
2022-10-31T14:59:52.351Z,25.23
2022-10-31T15:02:28.283Z,21.67
2022-10-31T15:04:56.515Z,20.65
2022-10-31T15:07:27.918Z,25.05
2022-10-31T15:10:03.799Z,23.77
2022-10-31T15:12:35.503Z,24.67
2022-10-31T15:15:22.271Z,25.60
2022-10-31T15:18:02.841Z,25.40
2022-10-31T15:20:38.542Z,25.02
2022-10-31T15:23:05.789Z,28.00
2022-10-31T15:25:36.238Z,29.45
2022-10-31T15:28:13.778Z,24.65
2022-10-31T15:30:40.131Z,26.08
2022-10-31T15:33:38.247Z,29.20
2022-10-31T15:36:06.631Z,36.28
2022-10-31T15:38:34.418Z,38.22
2022-10-31T15:41:07.337Z,32.22
2022-10-31T15:43:38.152Z,32.03
2022-10-31T15:46:07.806Z,32.15
2022-10-31T15:48:35.486Z,30.38
2022-10-31T15:51:03.820Z,28.60
2022-10-31T15:53:38.026Z,28.05
2022-10-31T15:56:12.695Z,27.63
2022-10-31T15:58:49.621Z,32.97
2022-10-31T16:01:25.220Z,30.17
2022-10-31T16:04:08.406Z,34.25
2022-10-31T16:06:35.962Z,28.25
2022-10-31T16:09:03.966Z,27.33
2022-10-31T16:11:37.821Z,23.88
2022-10-31T16:14:10.145Z,22.87
2022-10-31T16:16:49.557Z,23.48
2022-10-31T16:19:35.109Z,24.00
2022-10-31T16:22:14.501Z,23.42
2022-10-31T16:24:49.771Z,18.83
2022-10-31T16:27:20.290Z,23.88
2022-10-31T16:29:47.913Z,24.77
2022-10-31T16:32:36.893Z,26.02
2022-10-31T16:35:08.942Z,27.60
2022-10-31T16:37:38.611Z,26.50
2022-10-31T16:40:05.542Z,25.23
2022-10-31T16:42:31.915Z,23.98
2022-10-31T16:45:00.148Z,22.02
2022-10-31T16:47:28.586Z,19.73
2022-10-31T16:49:55.231Z,23.83
2022-10-31T16:52:22.122Z,17.50
2022-10-31T16:54:48.503Z,21.50
2022-10-31T16:57:23.641Z,20.52
2022-10-31T16:59:54.655Z,20.73
2022-10-31T17:02:21.961Z,22.85
2022-10-31T17:04:50.904Z,22.33
2022-10-31T17:07:20.964Z,17.02
2022-10-31T17:09:47.282Z,21.77
2022-10-31T17:12:21.864Z,17.38
2022-10-31T17:14:52.131Z,19.08
2022-10-31T17:17:18.460Z,18.35
2022-10-31T17:19:44.794Z,19.38
2022-10-31T17:22:12.945Z,18.98
2022-10-31T17:24:39.359Z,29.20
2022-10-31T17:27:06.168Z,31.20
2022-10-31T17:29:32.874Z,27.95
2022-10-31T17:32:00.237Z,23.17
2022-10-31T17:34:27.085Z,27.92
2022-10-31T17:36:53.561Z,22.70
2022-10-31T17:39:20.289Z,21.73
2022-10-31T17:41:50.202Z,22.08
2022-10-31T17:44:16.538Z,21.25
2022-10-31T17:46:42.849Z,20.92
2022-10-31T17:49:12.369Z,29.33
2022-10-31T17:51:38.726Z,27.23
2022-10-31T17:54:06.847Z,23.95
2022-10-31T17:56:33.580Z,28.13
2022-10-31T17:59:00.005Z,25.17
2022-10-31T18:01:26.505Z,34.10
2022-10-31T18:03:53.010Z,31.00
2022-10-31T18:06:19.956Z,28.98
2022-10-31T18:08:46.700Z,32.88
2022-10-31T18:11:21.428Z,29.83
2022-10-31T18:13:48.007Z,29.00
2022-10-31T18:16:18.000Z,29.02
2022-10-31T18:18:44.547Z,30.33
2022-10-31T18:21:10.942Z,38.20
2022-10-31T18:23:37.684Z,61.03
2022-10-31T18:26:04.380Z,43.03
2022-10-31T18:28:30.716Z,39.88
2022-10-31T18:31:00.541Z,41.10
2022-10-31T18:33:27.529Z,25.75
2022-10-31T18:35:54.424Z,26.85
2022-10-31T18:38:21.003Z,22.48
2022-10-31T18:40:47.707Z,24.42
2022-10-31T18:43:14.717Z,26.98
2022-10-31T18:45:47.188Z,25.42
2022-10-31T18:48:16.336Z,23.08
2022-10-31T18:50:43.389Z,32.45
2022-10-31T18:53:09.901Z,24.05
2022-10-31T18:55:45.446Z,24.25
2022-10-31T18:58:16.630Z,27.73
2022-10-31T19:00:43.041Z,27.08
2022-10-31T19:03:09.465Z,33.75
2022-10-31T19:05:36.141Z,34.10
2022-10-31T19:08:02.569Z,38.38
2022-10-31T19:10:29.170Z,31.73
2022-10-31T19:12:56.021Z,34.85
2022-10-31T19:15:22.753Z,33.00
2022-10-31T19:17:49.351Z,35.65
2022-10-31T19:20:15.892Z,38.00
2022-10-31T19:22:42.625Z,35.53
2022-10-31T19:25:10.631Z,33.20
2022-10-31T19:27:37.444Z,31.75
2022-10-31T19:30:05.141Z,39.95
2022-10-31T19:32:31.472Z,35.15
2022-10-31T19:34:57.803Z,32.92
2022-10-31T19:37:24.753Z,48.55
2022-10-31T19:39:51.685Z,33.63
2022-10-31T19:42:18.026Z,40.45
2022-10-31T19:44:44.723Z,33.20
2022-10-31T19:47:11.217Z,34.53
2022-10-31T19:49:37.730Z,50.42
2022-10-31T19:52:04.660Z,44.25
2022-10-31T19:54:31.990Z,41.63
2022-10-31T19:56:58.312Z,46.33
2022-10-31T19:59:26.064Z,38.58
2022-10-31T20:01:52.492Z,39.10
2022-10-31T20:04:18.872Z,34.80
2022-10-31T20:06:45.244Z,34.70
2022-10-31T20:09:13.865Z,40.05
2022-10-31T20:11:42.130Z,31.85
2022-10-31T20:14:11.021Z,32.47
2022-10-31T20:16:37.451Z,28.83
2022-10-31T20:19:04.029Z,29.55
2022-10-31T20:21:32.346Z,32.88
2022-10-31T20:24:05.623Z,34.00
2022-10-31T20:26:33.573Z,29.48
2022-10-31T20:29:01.441Z,35.10
2022-10-31T20:31:30.802Z,32.42
2022-10-31T20:33:58.087Z,30.50
2022-10-31T20:36:25.186Z,32.25
2022-10-31T20:38:52.492Z,37.90
2022-10-31T20:41:19.728Z,38.25
2022-10-31T20:43:46.405Z,47.67
2022-10-31T20:46:16.686Z,41.10
2022-10-31T20:48:43.522Z,30.45
2022-10-31T20:53:48.604Z,36.05
2022-10-31T20:56:18.577Z,33.25
2022-10-31T20:58:45.810Z,42.08
2022-10-31T21:01:25.900Z,35.47
2022-10-31T21:03:53.088Z,31.45
2022-10-31T21:06:21.274Z,35.10
2022-10-31T21:08:48.086Z,37.65
2022-10-31T21:11:16.926Z,39.17
2022-10-31T21:13:44.997Z,31.55
2022-10-31T21:16:27.275Z,25.75
2022-10-31T21:18:54.320Z,31.52
2022-10-31T21:21:20.610Z,36.88
2022-10-31T21:23:47.750Z,28.48
2022-10-31T21:26:17.275Z,30.33
2022-10-31T21:28:44.058Z,31.38
2022-10-31T21:31:13.365Z,26.92
2022-10-31T21:33:40.014Z,31.08
2022-10-31T21:36:07.065Z,28.45
2022-10-31T21:38:35.081Z,26.65
2022-10-31T21:41:05.561Z,25.25
2022-10-31T21:43:34.462Z,30.52
2022-10-31T21:46:06.292Z,26.90
2022-10-31T21:48:33.157Z,26.23
2022-10-31T21:51:04.091Z,31.83
2022-10-31T21:53:49.908Z,29.95
2022-10-31T21:56:17.058Z,25.05
2022-10-31T21:58:43.360Z,29.15
2022-10-31T22:01:10.227Z,30.45
2022-10-31T22:03:38.307Z,31.15
2022-10-31T22:06:07.328Z,28.27
2022-10-31T22:08:34.310Z,31.90
2022-10-31T22:11:05.244Z,37.70
2022-10-31T22:13:32.618Z,28.13
2022-10-31T22:16:04.537Z,31.40
2022-10-31T22:18:31.214Z,24.40
2022-10-31T22:21:05.742Z,26.90
2022-10-31T22:23:32.285Z,32.58
2022-10-31T22:26:06.843Z,25.00
2022-10-31T22:28:34.210Z,20.88
2022-10-31T22:31:08.554Z,16.38
2022-10-31T22:33:36.397Z,16.60
2022-10-31T22:36:05.486Z,14.40
2022-10-31T22:38:40.113Z,18.75
2022-10-31T22:41:08.454Z,15.57
2022-10-31T22:43:35.009Z,18.10
2022-10-31T22:46:05.275Z,18.65
2022-10-31T22:48:37.684Z,21.98
2022-10-31T22:51:17.797Z,20.45
2022-10-31T22:53:45.344Z,18.30
2022-10-31T22:56:15.793Z,20.42
2022-10-31T22:58:42.772Z,21.52
2022-10-31T23:01:15.594Z,17.70
2022-10-31T23:03:42.098Z,22.77
2022-10-31T23:06:14.700Z,21.30
2022-10-31T23:08:41.869Z,26.67
2022-10-31T23:11:27.723Z,18.45
2022-10-31T23:14:14.346Z,19.45
2022-10-31T23:16:52.264Z,22.30
2022-10-31T23:19:23.615Z,19.67
2022-10-31T23:22:02.617Z,20.25
2022-10-31T23:24:37.158Z,16.80
2022-10-31T23:27:09.100Z,18.80
2022-10-31T23:29:51.094Z,14.05
2022-10-31T23:32:37.636Z,13.52
2022-10-31T23:35:07.894Z,19.48
2022-10-31T23:37:35.957Z,21.77
2022-10-31T23:40:02.757Z,19.13
2022-10-31T23:42:29.835Z,19.55
2022-10-31T23:44:56.352Z,14.27
2022-10-31T23:47:23.705Z,16.63
2022-10-31T23:49:50.683Z,19.23
2022-10-31T23:52:17.529Z,19.33
2022-10-31T23:54:44.285Z,16.20
2022-10-31T23:57:12.670Z,15.25
2022-10-31T23:59:39.688Z,35.58
